sensor_id;sensor_type;location;lat;lon;timestamp;P1;durP1;ratioP1;P2;durP2;ratioP2
78877;SDS011;68257;43.514;1.498;2023-05-10T00:01:37;18.10;;;3.30;;
78877;SDS011;68257;43.514;1.498;2023-05-10T00:04:03;14.17;;;3.20;;
78877;SDS011;68257;43.514;1.498;2023-05-10T00:06:29;10.40;;;2.60;;
78877;SDS011;68257;43.514;1.498;2023-05-10T00:08:54;9.57;;;2.28;;
78877;SDS011;68257;43.514;1.498;2023-05-10T00:11:20;11.45;;;2.70;;
78877;SDS011;68257;43.514;1.498;2023-05-10T00:13:45;9.33;;;2.70;;
78877;SDS011;68257;43.514;1.498;2023-05-10T00:16:11;17.17;;;2.90;;
78877;SDS011;68257;43.514;1.498;2023-05-10T00:18:38;11.65;;;3.30;;
78877;SDS011;68257;43.514;1.498;2023-05-10T00:21:03;19.27;;;3.33;;
78877;SDS011;68257;43.514;1.498;2023-05-10T00:23:29;13.88;;;3.22;;
78877;SDS011;68257;43.514;1.498;2023-05-10T00:25:55;18.53;;;3.50;;
78877;SDS011;68257;43.514;1.498;2023-05-10T00:28:20;19.37;;;3.67;;
78877;SDS011;68257;43.514;1.498;2023-05-10T00:30:45;14.38;;;2.72;;
78877;SDS011;68257;43.514;1.498;2023-05-10T00:33:11;17.80;;;3.00;;
78877;SDS011;68257;43.514;1.498;2023-05-10T00:35:36;13.57;;;3.13;;
78877;SDS011;68257;43.514;1.498;2023-05-10T00:38:03;14.93;;;3.28;;
78877;SDS011;68257;43.514;1.498;2023-05-10T00:40:28;15.67;;;3.30;;
78877;SDS011;68257;43.514;1.498;2023-05-10T00:42:55;20.20;;;3.35;;
78877;SDS011;68257;43.514;1.498;2023-05-10T00:45:21;17.48;;;3.30;;
78877;SDS011;68257;43.514;1.498;2023-05-10T00:47:46;14.67;;;2.87;;
78877;SDS011;68257;43.514;1.498;2023-05-10T00:50:12;14.83;;;3.13;;
78877;SDS011;68257;43.514;1.498;2023-05-10T00:52:38;14.35;;;3.10;;
78877;SDS011;68257;43.514;1.498;2023-05-10T00:55:03;18.90;;;3.33;;
78877;SDS011;68257;43.514;1.498;2023-05-10T00:57:30;16.80;;;3.08;;
78877;SDS011;68257;43.514;1.498;2023-05-10T00:59:55;15.02;;;3.33;;
78877;SDS011;68257;43.514;1.498;2023-05-10T01:02:22;14.50;;;3.28;;
78877;SDS011;68257;43.514;1.498;2023-05-10T01:04:48;11.97;;;2.63;;
78877;SDS011;68257;43.514;1.498;2023-05-10T01:07:14;21.20;;;2.95;;
78877;SDS011;68257;43.514;1.498;2023-05-10T01:09:40;14.53;;;3.10;;
78877;SDS011;68257;43.514;1.498;2023-05-10T01:12:06;17.40;;;2.97;;
78877;SDS011;68257;43.514;1.498;2023-05-10T01:14:32;15.70;;;2.90;;
78877;SDS011;68257;43.514;1.498;2023-05-10T01:16:58;16.55;;;2.85;;
78877;SDS011;68257;43.514;1.498;2023-05-10T01:19:26;14.45;;;2.53;;
78877;SDS011;68257;43.514;1.498;2023-05-10T01:27:14;10.20;;;2.20;;
78877;SDS011;68257;43.514;1.498;2023-05-10T01:30:03;11.27;;;2.33;;
78877;SDS011;68257;43.514;1.498;2023-05-10T01:32:41;12.90;;;2.33;;
78877;SDS011;68257;43.514;1.498;2023-05-10T01:40:23;13.40;;;2.60;;
78877;SDS011;68257;43.514;1.498;2023-05-10T01:42:56;12.85;;;2.40;;
78877;SDS011;68257;43.514;1.498;2023-05-10T01:45:44;9.75;;;2.30;;
78877;SDS011;68257;43.514;1.498;2023-05-10T01:48:14;10.70;;;2.05;;
78877;SDS011;68257;43.514;1.498;2023-05-10T01:50:42;15.57;;;2.53;;
78877;SDS011;68257;43.514;1.498;2023-05-10T01:53:09;8.55;;;2.08;;
78877;SDS011;68257;43.514;1.498;2023-05-10T01:55:38;9.65;;;2.40;;
78877;SDS011;68257;43.514;1.498;2023-05-10T01:58:07;11.75;;;1.98;;
78877;SDS011;68257;43.514;1.498;2023-05-10T02:00:34;12.50;;;2.00;;
78877;SDS011;68257;43.514;1.498;2023-05-10T02:03:01;9.50;;;2.00;;
78877;SDS011;68257;43.514;1.498;2023-05-10T02:05:30;13.90;;;2.55;;
78877;SDS011;68257;43.514;1.498;2023-05-10T02:07:57;11.05;;;2.17;;
78877;SDS011;68257;43.514;1.498;2023-05-10T02:10:23;14.75;;;2.50;;
78877;SDS011;68257;43.514;1.498;2023-05-10T02:12:48;16.30;;;2.60;;
78877;SDS011;68257;43.514;1.498;2023-05-10T02:15:16;10.60;;;2.22;;
78877;SDS011;68257;43.514;1.498;2023-05-10T02:17:44;10.45;;;1.98;;
78877;SDS011;68257;43.514;1.498;2023-05-10T02:20:11;14.03;;;2.37;;
78877;SDS011;68257;43.514;1.498;2023-05-10T02:22:37;13.00;;;2.03;;
78877;SDS011;68257;43.514;1.498;2023-05-10T02:25:04;11.05;;;2.13;;
78877;SDS011;68257;43.514;1.498;2023-05-10T02:27:30;12.93;;;2.33;;
78877;SDS011;68257;43.514;1.498;2023-05-10T02:29:56;12.87;;;2.60;;
78877;SDS011;68257;43.514;1.498;2023-05-10T02:32:22;11.93;;;2.03;;
78877;SDS011;68257;43.514;1.498;2023-05-10T02:34:48;11.25;;;2.05;;
78877;SDS011;68257;43.514;1.498;2023-05-10T02:37:17;11.07;;;2.35;;
78877;SDS011;68257;43.514;1.498;2023-05-10T02:39:43;13.73;;;2.60;;
78877;SDS011;68257;43.514;1.498;2023-05-10T02:42:15;13.00;;;2.60;;
78877;SDS011;68257;43.514;1.498;2023-05-10T02:44:42;18.70;;;2.75;;
78877;SDS011;68257;43.514;1.498;2023-05-10T02:47:08;17.90;;;2.30;;
78877;SDS011;68257;43.514;1.498;2023-05-10T02:49:33;16.30;;;2.70;;
78877;SDS011;68257;43.514;1.498;2023-05-10T02:52:00;16.38;;;2.55;;
78877;SDS011;68257;43.514;1.498;2023-05-10T02:54:29;12.70;;;2.27;;
78877;SDS011;68257;43.514;1.498;2023-05-10T02:56:57;14.60;;;3.53;;
78877;SDS011;68257;43.514;1.498;2023-05-10T02:59:24;17.55;;;2.58;;
78877;SDS011;68257;43.514;1.498;2023-05-10T03:01:49;11.23;;;2.77;;
78877;SDS011;68257;43.514;1.498;2023-05-10T03:04:15;13.37;;;2.33;;
78877;SDS011;68257;43.514;1.498;2023-05-10T03:06:40;17.00;;;2.90;;
78877;SDS011;68257;43.514;1.498;2023-05-10T03:09:06;12.73;;;2.77;;
78877;SDS011;68257;43.514;1.498;2023-05-10T03:11:39;12.02;;;2.40;;
78877;SDS011;68257;43.514;1.498;2023-05-10T03:14:21;10.52;;;2.60;;
78877;SDS011;68257;43.514;1.498;2023-05-10T03:16:47;13.50;;;2.43;;
78877;SDS011;68257;43.514;1.498;2023-05-10T03:19:22;11.05;;;2.40;;
78877;SDS011;68257;43.514;1.498;2023-05-10T03:21:50;12.43;;;2.75;;
78877;SDS011;68257;43.514;1.498;2023-05-10T03:24:18;17.08;;;3.17;;
78877;SDS011;68257;43.514;1.498;2023-05-10T03:26:45;17.00;;;3.00;;
78877;SDS011;68257;43.514;1.498;2023-05-10T03:29:11;18.40;;;3.37;;
78877;SDS011;68257;43.514;1.498;2023-05-10T03:31:38;13.50;;;2.20;;
78877;SDS011;68257;43.514;1.498;2023-05-10T03:34:04;9.37;;;2.10;;
78877;SDS011;68257;43.514;1.498;2023-05-10T03:36:29;11.77;;;1.80;;
78877;SDS011;68257;43.514;1.498;2023-05-10T03:38:55;12.17;;;2.20;;
78877;SDS011;68257;43.514;1.498;2023-05-10T03:41:20;10.88;;;2.10;;
78877;SDS011;68257;43.514;1.498;2023-05-10T03:43:46;12.65;;;2.22;;
78877;SDS011;68257;43.514;1.498;2023-05-10T03:46:11;10.67;;;2.27;;
78877;SDS011;68257;43.514;1.498;2023-05-10T03:48:37;6.97;;;1.93;;
78877;SDS011;68257;43.514;1.498;2023-05-10T03:51:02;11.23;;;2.03;;
78877;SDS011;68257;43.514;1.498;2023-05-10T03:53:28;14.20;;;2.13;;
78877;SDS011;68257;43.514;1.498;2023-05-10T03:55:53;12.35;;;2.20;;
78877;SDS011;68257;43.514;1.498;2023-05-10T03:58:19;13.47;;;2.50;;
78877;SDS011;68257;43.514;1.498;2023-05-10T04:00:44;13.97;;;2.33;;
78877;SDS011;68257;43.514;1.498;2023-05-10T04:03:13;9.23;;;1.63;;
78877;SDS011;68257;43.514;1.498;2023-05-10T04:05:39;10.40;;;2.17;;
78877;SDS011;68257;43.514;1.498;2023-05-10T04:08:04;11.80;;;2.25;;
78877;SDS011;68257;43.514;1.498;2023-05-10T04:10:30;12.40;;;2.00;;
78877;SDS011;68257;43.514;1.498;2023-05-10T04:12:56;10.95;;;2.10;;
78877;SDS011;68257;43.514;1.498;2023-05-10T04:15:21;12.80;;;2.17;;
78877;SDS011;68257;43.514;1.498;2023-05-10T04:17:47;17.10;;;2.37;;
78877;SDS011;68257;43.514;1.498;2023-05-10T04:20:12;13.95;;;2.33;;
78877;SDS011;68257;43.514;1.498;2023-05-10T04:22:38;12.77;;;2.10;;
78877;SDS011;68257;43.514;1.498;2023-05-10T04:25:03;11.70;;;2.20;;
78877;SDS011;68257;43.514;1.498;2023-05-10T04:27:29;10.45;;;2.00;;
78877;SDS011;68257;43.514;1.498;2023-05-10T04:29:56;10.93;;;1.83;;
78877;SDS011;68257;43.514;1.498;2023-05-10T04:32:21;11.57;;;2.17;;
78877;SDS011;68257;43.514;1.498;2023-05-10T04:34:46;9.40;;;1.80;;
78877;SDS011;68257;43.514;1.498;2023-05-10T04:37:12;11.43;;;1.83;;
78877;SDS011;68257;43.514;1.498;2023-05-10T04:39:37;14.17;;;2.00;;
78877;SDS011;68257;43.514;1.498;2023-05-10T04:42:03;11.17;;;2.27;;
78877;SDS011;68257;43.514;1.498;2023-05-10T04:44:30;13.25;;;1.98;;
78877;SDS011;68257;43.514;1.498;2023-05-10T04:46:56;13.40;;;2.23;;
78877;SDS011;68257;43.514;1.498;2023-05-10T04:49:21;9.27;;;2.05;;
78877;SDS011;68257;43.514;1.498;2023-05-10T04:51:47;9.18;;;1.70;;
78877;SDS011;68257;43.514;1.498;2023-05-10T04:54:12;10.57;;;2.20;;
78877;SDS011;68257;43.514;1.498;2023-05-10T04:56:38;12.77;;;1.97;;
78877;SDS011;68257;43.514;1.498;2023-05-10T04:59:03;7.03;;;1.80;;
78877;SDS011;68257;43.514;1.498;2023-05-10T05:01:28;10.30;;;2.00;;
78877;SDS011;68257;43.514;1.498;2023-05-10T05:03:54;12.30;;;2.30;;
78877;SDS011;68257;43.514;1.498;2023-05-10T05:06:19;11.83;;;2.07;;
78877;SDS011;68257;43.514;1.498;2023-05-10T05:08:46;11.70;;;2.35;;
78877;SDS011;68257;43.514;1.498;2023-05-10T05:11:11;13.63;;;2.10;;
78877;SDS011;68257;43.514;1.498;2023-05-10T05:13:36;11.43;;;1.90;;
78877;SDS011;68257;43.514;1.498;2023-05-10T05:16:02;14.47;;;2.37;;
78877;SDS011;68257;43.514;1.498;2023-05-10T05:18:28;14.52;;;2.38;;
78877;SDS011;68257;43.514;1.498;2023-05-10T05:20:53;14.05;;;2.72;;
78877;SDS011;68257;43.514;1.498;2023-05-10T05:23:19;17.00;;;2.40;;
78877;SDS011;68257;43.514;1.498;2023-05-10T05:25:45;14.93;;;2.42;;
78877;SDS011;68257;43.514;1.498;2023-05-10T05:28:11;13.43;;;2.00;;
78877;SDS011;68257;43.514;1.498;2023-05-10T05:30:36;14.60;;;2.73;;
78877;SDS011;68257;43.514;1.498;2023-05-10T05:33:02;17.47;;;3.07;;
78877;SDS011;68257;43.514;1.498;2023-05-10T05:35:27;14.52;;;2.30;;
78877;SDS011;68257;43.514;1.498;2023-05-10T05:37:53;12.50;;;2.30;;
78877;SDS011;68257;43.514;1.498;2023-05-10T05:40:18;17.90;;;2.80;;
78877;SDS011;68257;43.514;1.498;2023-05-10T05:42:43;17.33;;;2.97;;
78877;SDS011;68257;43.514;1.498;2023-05-10T05:45:09;16.27;;;2.07;;
78877;SDS011;68257;43.514;1.498;2023-05-10T05:47:37;15.10;;;2.28;;
78877;SDS011;68257;43.514;1.498;2023-05-10T05:50:03;11.15;;;2.17;;
78877;SDS011;68257;43.514;1.498;2023-05-10T05:52:29;14.68;;;2.20;;
78877;SDS011;68257;43.514;1.498;2023-05-10T05:54:55;11.43;;;2.00;;
78877;SDS011;68257;43.514;1.498;2023-05-10T05:57:20;11.13;;;2.23;;
78877;SDS011;68257;43.514;1.498;2023-05-10T05:59:46;14.10;;;2.00;;
78877;SDS011;68257;43.514;1.498;2023-05-10T06:02:12;16.07;;;3.40;;
78877;SDS011;68257;43.514;1.498;2023-05-10T06:04:37;13.50;;;2.53;;
78877;SDS011;68257;43.514;1.498;2023-05-10T06:07:03;11.80;;;2.60;;
78877;SDS011;68257;43.514;1.498;2023-05-10T06:09:28;12.63;;;2.53;;
78877;SDS011;68257;43.514;1.498;2023-05-10T06:11:54;12.70;;;2.40;;
78877;SDS011;68257;43.514;1.498;2023-05-10T06:14:22;12.80;;;2.53;;
78877;SDS011;68257;43.514;1.498;2023-05-10T06:16:47;12.40;;;2.38;;
78877;SDS011;68257;43.514;1.498;2023-05-10T06:19:13;12.63;;;2.20;;
78877;SDS011;68257;43.514;1.498;2023-05-10T06:21:38;17.58;;;2.55;;
78877;SDS011;68257;43.514;1.498;2023-05-10T06:24:04;16.17;;;2.40;;
78877;SDS011;68257;43.514;1.498;2023-05-10T06:26:31;13.27;;;2.25;;
78877;SDS011;68257;43.514;1.498;2023-05-10T06:28:57;12.80;;;2.17;;
78877;SDS011;68257;43.514;1.498;2023-05-10T06:31:22;12.43;;;2.37;;
78877;SDS011;68257;43.514;1.498;2023-05-10T06:33:47;14.10;;;2.07;;
78877;SDS011;68257;43.514;1.498;2023-05-10T06:36:13;16.37;;;2.00;;
78877;SDS011;68257;43.514;1.498;2023-05-10T06:38:38;15.27;;;2.40;;
78877;SDS011;68257;43.514;1.498;2023-05-10T06:41:04;15.05;;;2.30;;
78877;SDS011;68257;43.514;1.498;2023-05-10T06:43:29;14.97;;;2.70;;
78877;SDS011;68257;43.514;1.498;2023-05-10T06:45:55;11.90;;;2.00;;
78877;SDS011;68257;43.514;1.498;2023-05-10T06:48:20;16.60;;;2.60;;
78877;SDS011;68257;43.514;1.498;2023-05-10T06:50:46;10.77;;;2.10;;
78877;SDS011;68257;43.514;1.498;2023-05-10T06:53:11;13.83;;;2.60;;
78877;SDS011;68257;43.514;1.498;2023-05-10T06:55:37;12.95;;;2.10;;
78877;SDS011;68257;43.514;1.498;2023-05-10T06:58:02;12.97;;;2.40;;
78877;SDS011;68257;43.514;1.498;2023-05-10T07:00:28;11.37;;;2.00;;
78877;SDS011;68257;43.514;1.498;2023-05-10T07:02:53;15.13;;;1.95;;
78877;SDS011;68257;43.514;1.498;2023-05-10T07:05:19;16.27;;;2.40;;
78877;SDS011;68257;43.514;1.498;2023-05-10T07:07:45;13.25;;;2.05;;
78877;SDS011;68257;43.514;1.498;2023-05-10T07:10:11;17.33;;;4.53;;
78877;SDS011;68257;43.514;1.498;2023-05-10T07:12:36;17.07;;;2.73;;
78877;SDS011;68257;43.514;1.498;2023-05-10T07:15:02;14.82;;;2.65;;
78877;SDS011;68257;43.514;1.498;2023-05-10T07:17:27;12.98;;;2.30;;
78877;SDS011;68257;43.514;1.498;2023-05-10T07:19:53;13.25;;;2.80;;
78877;SDS011;68257;43.514;1.498;2023-05-10T07:22:18;11.60;;;1.90;;
78877;SDS011;68257;43.514;1.498;2023-05-10T07:24:44;13.33;;;2.43;;
78877;SDS011;68257;43.514;1.498;2023-05-10T07:27:09;11.93;;;2.10;;
78877;SDS011;68257;43.514;1.498;2023-05-10T07:29:35;15.52;;;2.20;;
78877;SDS011;68257;43.514;1.498;2023-05-10T07:32:01;13.10;;;2.40;;
78877;SDS011;68257;43.514;1.498;2023-05-10T07:34:26;11.80;;;2.65;;
78877;SDS011;68257;43.514;1.498;2023-05-10T07:36:52;15.77;;;2.00;;
78877;SDS011;68257;43.514;1.498;2023-05-10T07:39:19;10.15;;;1.98;;
78877;SDS011;68257;43.514;1.498;2023-05-10T07:41:45;15.43;;;2.30;;
78877;SDS011;68257;43.514;1.498;2023-05-10T07:44:11;15.73;;;2.40;;
78877;SDS011;68257;43.514;1.498;2023-05-10T07:46:36;15.70;;;2.40;;
78877;SDS011;68257;43.514;1.498;2023-05-10T07:49:01;14.77;;;2.60;;
78877;SDS011;68257;43.514;1.498;2023-05-10T07:51:27;14.27;;;2.47;;
78877;SDS011;68257;43.514;1.498;2023-05-10T07:53:53;14.65;;;2.33;;
78877;SDS011;68257;43.514;1.498;2023-05-10T07:56:23;14.00;;;2.60;;
78877;SDS011;68257;43.514;1.498;2023-05-10T07:58:54;14.00;;;2.40;;
78877;SDS011;68257;43.514;1.498;2023-05-10T08:01:20;13.43;;;2.33;;
78877;SDS011;68257;43.514;1.498;2023-05-10T08:03:45;12.90;;;2.10;;
78877;SDS011;68257;43.514;1.498;2023-05-10T08:06:11;11.27;;;2.07;;
78877;SDS011;68257;43.514;1.498;2023-05-10T08:08:37;10.13;;;2.20;;
78877;SDS011;68257;43.514;1.498;2023-05-10T08:11:03;15.52;;;2.20;;
78877;SDS011;68257;43.514;1.498;2023-05-10T08:13:28;10.88;;;2.38;;
78877;SDS011;68257;43.514;1.498;2023-05-10T08:15:54;16.40;;;3.03;;
78877;SDS011;68257;43.514;1.498;2023-05-10T08:18:19;10.60;;;2.43;;
78877;SDS011;68257;43.514;1.498;2023-05-10T08:20:45;9.10;;;2.53;;
78877;SDS011;68257;43.514;1.498;2023-05-10T08:23:12;13.43;;;2.27;;
78877;SDS011;68257;43.514;1.498;2023-05-10T08:25:38;9.65;;;1.98;;
78877;SDS011;68257;43.514;1.498;2023-05-10T08:28:03;12.88;;;2.25;;
78877;SDS011;68257;43.514;1.498;2023-05-10T08:30:29;14.05;;;2.25;;
78877;SDS011;68257;43.514;1.498;2023-05-10T08:32:54;11.97;;;2.60;;
78877;SDS011;68257;43.514;1.498;2023-05-10T08:35:19;12.20;;;2.87;;
78877;SDS011;68257;43.514;1.498;2023-05-10T08:37:45;13.60;;;2.87;;
78877;SDS011;68257;43.514;1.498;2023-05-10T08:40:11;9.52;;;2.20;;
78877;SDS011;68257;43.514;1.498;2023-05-10T08:42:36;9.98;;;2.08;;
78877;SDS011;68257;43.514;1.498;2023-05-10T08:45:06;12.15;;;2.20;;
78877;SDS011;68257;43.514;1.498;2023-05-10T08:47:33;10.50;;;2.40;;
78877;SDS011;68257;43.514;1.498;2023-05-10T08:50:00;7.95;;;1.85;;
78877;SDS011;68257;43.514;1.498;2023-05-10T08:52:27;9.73;;;1.90;;
78877;SDS011;68257;43.514;1.498;2023-05-10T08:54:53;11.18;;;2.10;;
78877;SDS011;68257;43.514;1.498;2023-05-10T08:57:19;12.88;;;3.30;;
78877;SDS011;68257;43.514;1.498;2023-05-10T08:59:45;11.77;;;2.10;;
78877;SDS011;68257;43.514;1.498;2023-05-10T09:02:11;12.60;;;1.90;;
78877;SDS011;68257;43.514;1.498;2023-05-10T09:04:38;10.27;;;1.97;;
78877;SDS011;68257;43.514;1.498;2023-05-10T09:07:03;8.20;;;1.70;;
78877;SDS011;68257;43.514;1.498;2023-05-10T09:09:29;7.43;;;1.50;;
78877;SDS011;68257;43.514;1.498;2023-05-10T09:11:54;13.47;;;1.90;;
78877;SDS011;68257;43.514;1.498;2023-05-10T09:14:20;8.50;;;2.15;;
78877;SDS011;68257;43.514;1.498;2023-05-10T09:16:45;12.03;;;2.10;;
78877;SDS011;68257;43.514;1.498;2023-05-10T09:19:11;9.70;;;2.10;;
78877;SDS011;68257;43.514;1.498;2023-05-10T09:21:37;9.57;;;2.07;;
78877;SDS011;68257;43.514;1.498;2023-05-10T09:24:06;10.13;;;2.60;;
78877;SDS011;68257;43.514;1.498;2023-05-10T09:26:32;9.57;;;1.90;;
78877;SDS011;68257;43.514;1.498;2023-05-10T09:28:58;6.43;;;1.57;;
78877;SDS011;68257;43.514;1.498;2023-05-10T09:31:28;6.60;;;1.73;;
78877;SDS011;68257;43.514;1.498;2023-05-10T09:34:09;11.88;;;1.92;;
78877;SDS011;68257;43.514;1.498;2023-05-10T09:36:34;7.27;;;1.77;;
78877;SDS011;68257;43.514;1.498;2023-05-10T09:38:59;8.17;;;1.80;;
78877;SDS011;68257;43.514;1.498;2023-05-10T09:41:25;7.17;;;1.83;;
78877;SDS011;68257;43.514;1.498;2023-05-10T09:43:51;7.82;;;1.90;;
78877;SDS011;68257;43.514;1.498;2023-05-10T09:46:20;8.37;;;1.90;;
78877;SDS011;68257;43.514;1.498;2023-05-10T09:48:46;8.73;;;1.70;;
78877;SDS011;68257;43.514;1.498;2023-05-10T09:51:19;8.50;;;1.98;;
78877;SDS011;68257;43.514;1.498;2023-05-10T09:53:45;10.57;;;1.90;;
78877;SDS011;68257;43.514;1.498;2023-05-10T09:56:10;8.80;;;1.88;;
78877;SDS011;68257;43.514;1.498;2023-05-10T09:58:36;8.10;;;1.70;;
78877;SDS011;68257;43.514;1.498;2023-05-10T10:01:03;9.05;;;2.13;;
78877;SDS011;68257;43.514;1.498;2023-05-10T10:03:28;7.00;;;1.50;;
78877;SDS011;68257;43.514;1.498;2023-05-10T10:05:54;8.68;;;1.83;;
78877;SDS011;68257;43.514;1.498;2023-05-10T10:08:20;8.35;;;1.85;;
78877;SDS011;68257;43.514;1.498;2023-05-10T10:10:46;9.93;;;2.13;;
78877;SDS011;68257;43.514;1.498;2023-05-10T10:13:12;8.20;;;2.08;;
78877;SDS011;68257;43.514;1.498;2023-05-10T10:15:38;10.63;;;2.20;;
78877;SDS011;68257;43.514;1.498;2023-05-10T10:18:04;8.05;;;1.90;;
78877;SDS011;68257;43.514;1.498;2023-05-10T10:20:30;10.00;;;2.60;;
78877;SDS011;68257;43.514;1.498;2023-05-10T10:22:55;9.67;;;3.03;;
78877;SDS011;68257;43.514;1.498;2023-05-10T10:25:21;9.13;;;2.27;;
78877;SDS011;68257;43.514;1.498;2023-05-10T10:30:43;5.22;;;1.60;;
78877;SDS011;68257;43.514;1.498;2023-05-10T10:36:05;6.07;;;2.80;;
78877;SDS011;68257;43.514;1.498;2023-05-10T10:47:05;10.00;;;3.60;;
78877;SDS011;68257;43.514;1.498;2023-05-10T10:49:33;7.30;;;2.92;;
78877;SDS011;68257;43.514;1.498;2023-05-10T10:54:52;5.63;;;3.10;;
78877;SDS011;68257;43.514;1.498;2023-05-10T10:57:25;7.32;;;3.60;;
78877;SDS011;68257;43.514;1.498;2023-05-10T10:59:51;9.00;;;2.97;;
78877;SDS011;68257;43.514;1.498;2023-05-10T11:03:24;7.82;;;3.58;;
78877;SDS011;68257;43.514;1.498;2023-05-10T11:05:39;8.13;;;3.25;;
78877;SDS011;68257;43.514;1.498;2023-05-10T11:13:37;8.80;;;2.93;;
78877;SDS011;68257;43.514;1.498;2023-05-10T11:16:11;7.50;;;3.08;;
78877;SDS011;68257;43.514;1.498;2023-05-10T11:18:37;5.78;;;2.30;;
78877;SDS011;68257;43.514;1.498;2023-05-10T11:21:03;5.90;;;2.33;;
78877;SDS011;68257;43.514;1.498;2023-05-10T11:23:47;8.60;;;2.33;;
78877;SDS011;68257;43.514;1.498;2023-05-10T11:26:13;6.85;;;2.45;;
78877;SDS011;68257;43.514;1.498;2023-05-10T11:28:42;6.30;;;2.00;;
78877;SDS011;68257;43.514;1.498;2023-05-10T11:31:08;6.35;;;2.20;;
78877;SDS011;68257;43.514;1.498;2023-05-10T11:33:44;6.73;;;1.97;;
78877;SDS011;68257;43.514;1.498;2023-05-10T11:36:10;9.93;;;2.35;;
78877;SDS011;68257;43.514;1.498;2023-05-10T11:38:36;6.03;;;1.85;;
78877;SDS011;68257;43.514;1.498;2023-05-10T11:41:02;7.20;;;2.07;;
78877;SDS011;68257;43.514;1.498;2023-05-10T11:43:27;6.17;;;2.13;;
78877;SDS011;68257;43.514;1.498;2023-05-10T11:45:55;8.15;;;2.30;;
78877;SDS011;68257;43.514;1.498;2023-05-10T11:48:21;11.73;;;2.20;;
78877;SDS011;68257;43.514;1.498;2023-05-10T11:50:48;8.57;;;1.80;;
78877;SDS011;68257;43.514;1.498;2023-05-10T11:53:14;10.65;;;2.22;;
78877;SDS011;68257;43.514;1.498;2023-05-10T11:55:40;7.60;;;2.40;;
78877;SDS011;68257;43.514;1.498;2023-05-10T11:58:05;7.50;;;1.60;;
78877;SDS011;68257;43.514;1.498;2023-05-10T12:00:30;4.63;;;1.50;;
78877;SDS011;68257;43.514;1.498;2023-05-10T12:02:56;5.67;;;1.90;;
78877;SDS011;68257;43.514;1.498;2023-05-10T12:05:22;4.32;;;1.40;;
78877;SDS011;68257;43.514;1.498;2023-05-10T12:07:47;4.10;;;1.80;;
78877;SDS011;68257;43.514;1.498;2023-05-10T12:10:13;5.53;;;2.20;;
78877;SDS011;68257;43.514;1.498;2023-05-10T12:12:43;5.75;;;2.22;;
78877;SDS011;68257;43.514;1.498;2023-05-10T12:15:23;3.70;;;1.70;;
78877;SDS011;68257;43.514;1.498;2023-05-10T12:17:49;4.63;;;2.45;;
78877;SDS011;68257;43.514;1.498;2023-05-10T12:20:16;4.55;;;2.42;;
78877;SDS011;68257;43.514;1.498;2023-05-10T12:22:46;5.03;;;2.20;;
78877;SDS011;68257;43.514;1.498;2023-05-10T12:25:15;4.70;;;2.60;;
78877;SDS011;68257;43.514;1.498;2023-05-10T12:27:47;5.15;;;3.00;;
78877;SDS011;68257;43.514;1.498;2023-05-10T12:30:19;5.35;;;2.80;;
78877;SDS011;68257;43.514;1.498;2023-05-10T12:32:46;5.30;;;2.05;;
78877;SDS011;68257;43.514;1.498;2023-05-10T12:35:11;5.60;;;2.33;;
78877;SDS011;68257;43.514;1.498;2023-05-10T12:37:36;5.97;;;2.00;;
78877;SDS011;68257;43.514;1.498;2023-05-10T12:40:07;5.38;;;2.13;;
78877;SDS011;68257;43.514;1.498;2023-05-10T12:42:33;6.78;;;2.35;;
78877;SDS011;68257;43.514;1.498;2023-05-10T12:45:00;7.17;;;2.47;;
78877;SDS011;68257;43.514;1.498;2023-05-10T12:47:26;7.05;;;2.20;;
78877;SDS011;68257;43.514;1.498;2023-05-10T12:49:51;4.67;;;1.97;;
78877;SDS011;68257;43.514;1.498;2023-05-10T12:52:16;6.40;;;2.70;;
78877;SDS011;68257;43.514;1.498;2023-05-10T12:54:42;6.23;;;2.50;;
78877;SDS011;68257;43.514;1.498;2023-05-10T12:57:07;8.20;;;3.20;;
78877;SDS011;68257;43.514;1.498;2023-05-10T12:59:33;6.33;;;2.67;;
78877;SDS011;68257;43.514;1.498;2023-05-10T13:01:58;4.70;;;2.60;;
78877;SDS011;68257;43.514;1.498;2023-05-10T13:04:23;5.33;;;2.60;;
78877;SDS011;68257;43.514;1.498;2023-05-10T13:06:49;5.20;;;2.53;;
78877;SDS011;68257;43.514;1.498;2023-05-10T13:09:14;5.75;;;3.30;;
78877;SDS011;68257;43.514;1.498;2023-05-10T13:11:40;5.53;;;3.10;;
78877;SDS011;68257;43.514;1.498;2023-05-10T13:14:05;4.73;;;3.00;;
78877;SDS011;68257;43.514;1.498;2023-05-10T13:16:31;4.78;;;2.90;;
78877;SDS011;68257;43.514;1.498;2023-05-10T13:18:56;4.43;;;2.23;;
78877;SDS011;68257;43.514;1.498;2023-05-10T13:21:22;5.10;;;2.40;;
78877;SDS011;68257;43.514;1.498;2023-05-10T13:23:49;5.13;;;3.35;;
78877;SDS011;68257;43.514;1.498;2023-05-10T13:26:14;4.60;;;2.57;;
78877;SDS011;68257;43.514;1.498;2023-05-10T13:28:40;4.53;;;2.90;;
78877;SDS011;68257;43.514;1.498;2023-05-10T13:31:05;6.57;;;3.80;;
78877;SDS011;68257;43.514;1.498;2023-05-10T13:33:31;5.83;;;3.40;;
78877;SDS011;68257;43.514;1.498;2023-05-10T13:35:56;6.37;;;3.87;;
78877;SDS011;68257;43.514;1.498;2023-05-10T13:38:21;6.20;;;3.60;;
78877;SDS011;68257;43.514;1.498;2023-05-10T13:40:47;5.00;;;3.53;;
78877;SDS011;68257;43.514;1.498;2023-05-10T13:43:12;4.20;;;2.53;;
78877;SDS011;68257;43.514;1.498;2023-05-10T13:45:37;5.13;;;3.60;;
78877;SDS011;68257;43.514;1.498;2023-05-10T13:48:03;6.57;;;2.50;;
78877;SDS011;68257;43.514;1.498;2023-05-10T13:50:29;6.33;;;2.90;;
78877;SDS011;68257;43.514;1.498;2023-05-10T13:52:55;4.68;;;2.45;;
78877;SDS011;68257;43.514;1.498;2023-05-10T13:55:20;5.20;;;2.10;;
78877;SDS011;68257;43.514;1.498;2023-05-10T13:57:46;4.10;;;2.57;;
78877;SDS011;68257;43.514;1.498;2023-05-10T14:00:11;5.00;;;2.30;;
78877;SDS011;68257;43.514;1.498;2023-05-10T14:02:37;3.73;;;2.40;;
78877;SDS011;68257;43.514;1.498;2023-05-10T14:05:03;4.50;;;2.05;;
78877;SDS011;68257;43.514;1.498;2023-05-10T14:07:29;4.83;;;2.00;;
78877;SDS011;68257;43.514;1.498;2023-05-10T14:09:54;4.68;;;2.00;;
78877;SDS011;68257;43.514;1.498;2023-05-10T14:12:20;5.47;;;2.30;;
78877;SDS011;68257;43.514;1.498;2023-05-10T14:14:45;6.53;;;1.73;;
78877;SDS011;68257;43.514;1.498;2023-05-10T14:17:10;5.57;;;1.93;;
78877;SDS011;68257;43.514;1.498;2023-05-10T14:19:36;5.18;;;1.50;;
78877;SDS011;68257;43.514;1.498;2023-05-10T14:22:01;7.57;;;1.90;;
78877;SDS011;68257;43.514;1.498;2023-05-10T14:24:27;6.32;;;1.60;;
78877;SDS011;68257;43.514;1.498;2023-05-10T14:26:53;6.97;;;1.50;;
78877;SDS011;68257;43.514;1.498;2023-05-10T14:29:19;4.63;;;1.42;;
78877;SDS011;68257;43.514;1.498;2023-05-10T14:31:45;4.27;;;1.80;;
78877;SDS011;68257;43.514;1.498;2023-05-10T14:34:10;6.50;;;1.70;;
78877;SDS011;68257;43.514;1.498;2023-05-10T14:36:36;4.40;;;1.40;;
78877;SDS011;68257;43.514;1.498;2023-05-10T14:39:01;6.47;;;1.50;;
78877;SDS011;68257;43.514;1.498;2023-05-10T14:41:27;5.93;;;1.48;;
78877;SDS011;68257;43.514;1.498;2023-05-10T14:43:52;4.53;;;1.30;;
78877;SDS011;68257;43.514;1.498;2023-05-10T14:46:18;5.27;;;1.33;;
78877;SDS011;68257;43.514;1.498;2023-05-10T14:48:43;4.50;;;1.30;;
78877;SDS011;68257;43.514;1.498;2023-05-10T14:51:09;5.53;;;1.50;;
78877;SDS011;68257;43.514;1.498;2023-05-10T14:53:34;3.77;;;1.30;;
78877;SDS011;68257;43.514;1.498;2023-05-10T14:55:59;4.37;;;1.40;;
78877;SDS011;68257;43.514;1.498;2023-05-10T14:58:26;5.40;;;1.55;;
78877;SDS011;68257;43.514;1.498;2023-05-10T15:00:52;5.25;;;1.20;;
78877;SDS011;68257;43.514;1.498;2023-05-10T15:03:17;6.60;;;2.10;;
78877;SDS011;68257;43.514;1.498;2023-05-10T15:05:43;6.80;;;1.70;;
78877;SDS011;68257;43.514;1.498;2023-05-10T15:08:08;4.97;;;1.60;;
78877;SDS011;68257;43.514;1.498;2023-05-10T15:10:34;6.10;;;2.00;;